.
WxDataArchive / Data Records for 2010-11-05
2010-11-04 November 2010 2010-11-06

Data Records for Friday, 05 November 2010

Time	Temp	Chill	HIndex	Humid	Dewpt	 Wind 	HiWind	WindDir	Rain 	Barom 
-----	----	-----	------	-----	-----	------	------	-------	-----	----- 
00:00	41.1	41.1	41.1	79	35.1	0	3	90	0.00	29.787 
00:05	40.9	40.9	40.9	79	34.9	0	3	45	0.00	29.787 
00:10	41.1	41.1	41.1	78	34.8	0	3	22	0.00	29.787 
00:15	41.1	41.1	41.1	78	34.8	0	2	292	0.00	29.789 
00:20	41.1	41.1	41.1	77	34.4	0	2	292	0.00	29.789 
00:25	41.1	41.1	41.1	78	34.8	0	2	22	0.00	29.789 
00:30	41.1	41.1	41.1	78	34.8	0	2	22	0.00	29.793 
00:35	41.1	41.1	41.1	77	34.4	0	2	22	0.00	29.793 
00:40	41.1	41.1	41.1	76	34.1	1	3	22	0.00	29.793 
00:45	41.1	41.1	41.1	75	33.8	0	3	338	0.00	29.796 
00:50	41.1	41.1	41.1	73	33.1	0	2	338	0.00	29.796 
00:55	41.1	41.1	41.1	72	32.8	1	4	338	0.00	29.796 
01:00	41.1	41.1	41.1	71	32.4	1	3	0	0.00	29.796 
01:05	41.1	41.1	41.1	71	32.4	1	4	338	0.00	29.796 
01:10	40.9	40.9	40.9	69	31.5	1	4	22	0.00	29.796 
01:15	40.8	40.8	40.8	66	30.3	1	3	338	0.00	29.799 
01:20	40.8	40.8	40.8	65	30.0	0	4	22	0.00	29.799 
01:25	40.8	40.8	40.8	65	30.0	1	3	292	0.00	29.799 
01:30	40.6	40.6	40.6	65	29.8	0	2	292	0.00	29.799 
01:35	40.6	40.6	40.6	63	29.0	2	9	292	0.00	29.799 
01:40	40.6	40.6	40.6	61	28.2	2	5	315	0.00	29.799 
01:45	40.6	40.6	40.6	61	28.2	2	5	315	0.00	29.798 
01:50	40.3	40.3	40.3	60	27.5	1	6	0	0.00	29.798 
01:55	40.2	40.2	40.2	61	27.8	1	4	315	0.00	29.798 
02:00	40.1	40.1	40.1	61	27.7	1	4	315	0.00	29.800 
02:05	40.1	40.1	40.1	61	27.7	1	4	338	0.00	29.800 
02:10	40.1	40.1	40.1	61	27.7	1	3	22	0.00	29.800 
02:15	40.1	40.1	40.1	61	27.7	0	2	338	0.00	29.797 
02:20	39.9	39.9	39.9	61	27.6	0	1	338	0.00	29.797 
02:25	39.8	39.8	39.8	61	27.5	0	2	315	0.00	29.797 
02:30	39.8	39.8	39.8	61	27.5	0	1	315	0.00	29.797 
02:35	39.6	39.6	39.6	61	27.3	0	1	315	0.00	29.797 
02:40	39.6	39.6	39.6	61	27.3	0	1	315	0.00	29.797 
02:45	39.6	39.6	39.6	61	27.3	0	2	338	0.00	29.797 
02:50	39.8	39.8	39.8	61	27.5	0	2	338	0.00	29.797 
02:55	39.8	39.8	39.8	60	27.1	1	3	292	0.00	29.797 
03:00	39.9	39.9	39.9	59	26.7	0	2	292	0.00	29.798 
03:05	39.9	39.9	39.9	59	26.7	0	3	22	0.00	29.798 
03:10	39.9	39.9	39.9	59	26.7	1	4	22	0.00	29.798 
03:15	39.9	39.9	39.9	60	27.2	0	3	338	0.00	29.797 
03:20	39.9	39.9	39.9	60	27.2	1	3	45	0.00	29.797 
03:25	39.8	39.8	39.8	60	27.1	0	2	338	0.00	29.797 
03:30	39.8	39.8	39.8	60	27.1	1	2	338	0.00	29.800 
03:35	39.8	39.8	39.8	60	27.1	0	2	338	0.00	29.800 
03:40	39.6	39.6	39.6	61	27.3	0	3	315	0.00	29.800 
03:45	39.5	39.5	39.5	61	27.2	0	2	315	0.00	29.801 
03:50	39.3	39.3	39.3	61	27.0	0	1	315	0.00	29.801 
03:55	39.2	39.2	39.2	61	26.9	0	2	315	0.00	29.801 
04:00	39.1	39.1	39.1	62	27.2	0	2	315	0.00	29.804 
04:05	38.9	38.9	38.9	62	27.0	0	1	315	0.00	29.804 
04:10	38.8	38.8	38.8	62	26.9	0	2	315	0.00	29.804 
04:15	38.5	38.5	38.5	62	26.6	0	1	315	0.00	29.804 
04:20	38.3	38.3	38.3	63	26.8	0	1	315	0.00	29.804 
04:25	38.0	38.0	38.0	63	26.5	0	1	315	0.00	29.804 
04:30	37.8	37.8	37.8	64	26.7	0	2	315	0.00	29.805 
04:35	37.8	37.8	37.8	64	26.7	0	2	315	0.00	29.805 
04:40	37.8	37.8	37.8	65	27.1	0	2	315	0.00	29.805 
04:45	37.9	37.9	37.9	65	27.2	0	2	315	0.00	29.802 
04:50	38.0	38.0	38.0	65	27.3	1	3	315	0.00	29.802 
04:55	38.3	38.3	38.3	64	27.2	1	3	315	0.00	29.802 
05:00	38.5	38.5	38.5	64	27.4	0	2	315	0.00	29.805 
05:05	38.3	38.3	38.3	64	27.2	0	2	315	0.00	29.805 
05:10	38.2	38.2	38.2	65	27.5	0	2	315	0.00	29.805 
05:15	38.0	38.0	38.0	65	27.3	1	2	315	0.00	29.814 
05:20	38.2	38.2	38.2	65	27.5	1	3	315	0.00	29.814 
05:25	38.0	38.0	38.0	64	26.9	0	2	338	0.00	29.814 
05:30	37.9	37.9	37.9	65	27.2	0	3	338	0.00	29.819 
05:35	37.8	37.8	37.8	65	27.1	1	4	338	0.00	29.819 
05:40	37.6	37.6	37.6	65	26.9	0	2	338	0.00	29.819 
05:45	37.3	37.3	37.3	65	26.6	0	3	338	0.00	29.828 
05:50	37.2	37.2	37.2	66	26.9	0	3	338	0.00	29.828 
05:55	37.0	37.0	37.0	66	26.7	0	2	338	0.00	29.828 
06:00	36.8	36.8	36.8	66	26.5	0	3	338	0.00	29.831 
06:05	36.6	36.6	36.6	67	26.7	0	1	338	0.00	29.831 
06:10	36.3	36.3	36.3	67	26.4	0	2	112	0.00	29.831 
06:15	36.2	36.2	36.2	67	26.3	0	2	112	0.00	29.835 
06:20	36.0	36.0	36.0	67	26.1	0	3	112	0.00	29.835 
06:25	36.0	36.0	36.0	67	26.1	0	1	135	0.00	29.835 
06:30	35.9	35.9	35.9	66	25.7	0	2	112	0.00	29.837 
06:35	35.8	35.8	35.8	67	25.9	0	2	338	0.00	29.837 
06:40	35.6	35.6	35.6	67	25.7	0	1	338	0.00	29.837 
06:45	35.5	35.5	35.5	67	25.6	0	2	338	0.00	29.840 
06:50	35.3	35.3	35.3	67	25.5	0	2	338	0.00	29.840 
06:55	35.2	35.2	35.2	68	25.7	0	2	338	0.00	29.840 
07:00	35.2	35.2	35.2	68	25.7	0	1	338	0.00	29.840 
07:05	35.0	35.0	35.0	68	25.5	0	1	338	0.00	29.840 
07:10	35.0	35.0	35.0	68	25.5	0	1	338	0.00	29.840 
07:15	34.7	34.7	34.7	69	25.6	0	0	---	0.00	29.845 
07:20	34.6	34.6	34.6	69	25.5	0	1	338	0.00	29.845 
07:25	34.3	34.3	34.3	69	25.2	0	0	---	0.00	29.845 
07:30	34.1	34.1	34.1	70	25.4	0	0	---	0.00	29.853 
07:35	34.0	34.0	34.0	70	25.3	0	0	---	0.00	29.853 
07:40	33.7	33.7	33.7	71	25.3	0	0	---	0.00	29.853 
07:45	33.5	33.5	33.5	71	25.1	0	0	---	0.00	29.854 
07:50	33.4	33.4	33.4	71	25.0	0	1	338	0.00	29.854 
07:55	33.2	33.2	33.2	72	25.2	0	0	---	0.00	29.854 
08:00	33.1	33.1	33.1	72	25.1	0	1	338	0.00	29.857 
08:05	33.1	33.1	33.1	72	25.1	0	2	338	0.00	29.857 
08:10	32.9	32.9	32.9	72	24.9	0	2	338	0.00	29.857 
08:15	32.9	32.9	32.9	72	24.9	0	1	338	0.00	29.860 
08:20	32.8	32.8	32.8	73	25.1	0	2	338	0.00	29.860 
08:25	32.7	32.7	32.7	73	25.0	0	1	338	0.00	29.860 
08:30	32.5	32.5	32.5	74	25.2	0	1	338	0.00	29.868 
08:35	32.5	32.5	32.5	75	25.5	1	2	338	0.00	29.868 
08:40	32.5	32.5	32.5	75	25.5	0	2	315	0.00	29.868 
08:45	32.4	32.4	32.4	75	25.4	0	1	315	0.00	29.873 
08:50	32.4	32.4	32.4	76	25.7	0	2	315	0.00	29.873 
08:55	32.4	32.4	32.4	77	26.0	0	2	315	0.00	29.873 
09:00	32.7	32.7	32.7	77	26.3	0	2	315	0.00	29.880 
09:05	32.8	32.8	32.8	76	26.1	1	3	315	0.00	29.880 
09:10	32.9	32.9	32.9	76	26.2	1	3	315	0.00	29.880 
09:15	33.2	33.2	33.2	75	26.2	1	3	315	0.00	29.887 
09:20	33.5	33.5	33.5	74	26.1	0	2	315	0.00	29.887 
09:25	33.7	33.7	33.7	73	26.0	1	3	315	0.00	29.887 
09:30	34.0	34.0	34.0	73	26.3	1	3	270	0.00	29.887 
09:35	34.3	34.3	34.3	72	26.2	1	4	270	0.00	29.887 
09:40	34.7	34.7	34.7	71	26.3	1	3	338	0.00	29.887 
09:45	35.0	35.0	35.0	70	26.2	1	4	338	0.00	29.890 
09:50	35.3	35.3	35.3	69	26.2	1	4	338	0.00	29.890 
09:55	35.6	35.6	35.6	68	26.1	1	3	315	0.00	29.890 
10:00	35.9	35.9	35.9	66	25.7	1	3	315	0.00	29.891 
10:05	36.3	36.3	36.3	65	25.7	1	6	292	0.00	29.891 
10:10	36.6	36.6	36.6	63	25.2	1	4	292	0.00	29.891 
10:15	37.0	37.0	37.0	63	25.6	1	4	338	0.00	29.894 
10:20	37.2	37.2	37.2	62	25.4	1	5	338	0.00	29.894 
10:25	37.5	37.5	37.5	61	25.3	2	5	338	0.00	29.894 
10:30	37.8	37.8	37.8	60	25.2	1	5	315	0.00	29.897 
10:35	38.0	38.0	38.0	59	25.0	1	5	315	0.00	29.897 
10:40	38.2	38.2	38.2	58	24.7	2	4	315	0.00	29.897 
10:45	38.5	38.5	38.5	58	25.0	2	4	292	0.00	29.899 
10:50	38.5	38.5	38.5	57	24.6	2	5	315	0.00	29.899 
10:55	38.8	38.8	38.8	56	24.5	2	5	0	0.00	29.899 
11:00	38.9	38.9	38.9	55	24.1	2	7	292	0.00	29.899 
11:05	38.9	38.9	38.9	55	24.1	2	5	338	0.00	29.899 
11:10	38.6	38.6	38.6	55	23.8	2	4	315	0.00	29.899 
11:15	38.6	38.6	38.6	56	24.3	2	5	315	0.00	29.905 
11:20	39.2	39.2	39.2	54	24.0	2	5	315	0.00	29.905 
11:25	38.9	38.9	38.9	54	23.7	2	6	292	0.00	29.905 
11:30	39.3	39.3	39.3	54	24.1	2	10	315	0.00	29.906 
11:35	39.2	39.2	39.2	53	23.5	2	5	315	0.00	29.906 
11:40	39.2	39.2	39.2	52	23.1	3	6	292	0.00	29.906 
11:45	39.3	39.3	39.3	51	22.7	3	5	315	0.00	29.913 
11:50	39.6	39.6	39.6	50	22.5	2	7	0	0.00	29.913 
11:55	39.9	39.9	39.9	50	22.8	1	5	338	0.00	29.913 
12:00	40.2	40.2	40.2	50	23.1	2	6	338	0.00	29.911 
12:05	40.2	40.2	40.2	50	23.1	2	4	315	0.00	29.911 
12:10	39.9	39.9	39.9	51	23.3	2	5	0	0.00	29.911 
12:15	39.6	39.6	39.6	50	22.5	2	7	315	0.00	29.913 
12:20	39.6	39.6	39.6	50	22.5	2	7	338	0.00	29.913 
12:25	40.3	40.3	40.3	49	22.7	2	6	292	0.00	29.913 
12:30	40.5	40.5	40.5	47	21.9	1	7	0	0.00	29.909 
12:35	40.2	40.2	40.2	47	21.6	2	6	315	0.00	29.909 
12:40	40.8	40.8	40.8	47	22.1	1	6	0	0.00	29.909 
12:45	40.8	40.8	40.8	46	21.6	2	4	270	0.00	29.908 
12:50	40.6	40.6	40.6	46	21.5	1	5	22	0.00	29.908 
12:55	40.5	40.5	40.5	46	21.4	2	6	292	0.00	29.908 
13:00	40.8	38.2	40.8	45	21.1	4	8	292	0.00	29.901 
13:05	40.8	40.8	40.8	46	21.6	2	6	270	0.00	29.901 
13:10	41.1	41.1	41.1	46	21.9	2	5	315	0.00	29.901 
13:15	41.6	41.6	41.6	46	22.4	2	5	315	0.00	29.898 
13:20	41.1	41.1	41.1	44	20.9	3	6	315	0.00	29.898 
13:25	40.6	40.6	40.6	46	21.5	2	10	292	0.00	29.898 
13:30	40.2	40.2	40.2	46	21.1	2	10	315	0.00	29.902 
13:35	40.1	40.1	40.1	48	22.0	1	5	0	0.00	29.902 
13:40	40.1	40.1	40.1	48	22.0	1	3	315	0.00	29.902 
13:45	40.5	40.5	40.5	48	22.4	1	2	292	0.00	29.898 
13:50	40.9	40.9	40.9	46	21.7	1	5	338	0.00	29.898 
13:55	41.1	41.1	41.1	46	21.9	1	3	338	0.00	29.898 
14:00	40.8	40.8	40.8	45	21.1	1	3	338	0.00	29.898 
14:05	40.3	40.3	40.3	46	21.2	2	7	0	0.00	29.898 
14:10	40.5	40.5	40.5	46	21.4	2	5	292	0.00	29.898 
14:15	40.5	40.5	40.5	46	21.4	1	4	292	0.00	29.898 
14:20	40.6	40.6	40.6	47	22.0	1	3	315	0.00	29.898 
14:25	40.9	40.9	40.9	46	21.7	0	2	270	0.00	29.898 
14:30	41.1	41.1	41.1	45	21.4	1	3	292	0.00	29.898 
14:35	40.8	40.8	40.8	46	21.6	1	3	292	0.00	29.898 
14:40	40.8	40.8	40.8	46	21.6	1	3	315	0.00	29.898 
14:45	40.8	40.8	40.8	46	21.6	1	4	0	0.00	29.899 
14:50	41.1	41.1	41.1	46	21.9	1	3	0	0.00	29.899 
14:55	41.2	41.2	41.2	45	21.5	1	4	292	0.00	29.899 
15:00	41.2	41.2	41.2	45	21.5	2	6	315	0.00	29.898 
15:05	40.9	40.9	40.9	44	20.7	3	11	292	0.00	29.898 
15:10	40.9	40.9	40.9	45	21.2	2	5	315	0.00	29.898 
15:15	40.8	40.8	40.8	45	21.1	2	5	338	0.00	29.899 
15:20	40.8	40.8	40.8	45	21.1	2	6	270	0.00	29.899 
15:25	40.8	40.8	40.8	46	21.6	1	4	338	0.00	29.899 
15:30	40.8	40.8	40.8	46	21.6	1	4	0	0.00	29.899 
15:35	40.6	40.6	40.6	46	21.5	1	4	0	0.00	29.899 
15:40	40.6	40.6	40.6	46	21.5	1	4	315	0.00	29.899 
15:45	40.5	40.5	40.5	47	21.9	1	4	315	0.00	29.905 
15:50	40.3	40.3	40.3	48	22.2	1	4	338	0.00	29.905 
15:55	40.2	40.2	40.2	48	22.1	1	3	338	0.00	29.905 
16:00	40.1	40.1	40.1	48	22.0	2	5	270	0.00	29.914 
16:05	40.1	40.1	40.1	49	22.5	2	5	315	0.00	29.914 
16:10	39.9	39.9	39.9	50	22.8	1	5	270	0.00	29.914 
16:15	40.1	40.1	40.1	50	23.0	1	3	315	0.00	29.920 
16:20	40.1	40.1	40.1	52	23.9	1	5	292	0.00	29.920 
16:25	39.8	39.8	39.8	53	24.1	2	5	270	0.00	29.920 
16:30	39.6	39.6	39.6	53	23.9	2	9	292	0.00	29.929 
16:35	39.3	39.3	39.3	53	23.6	1	4	315	0.00	29.929 
16:40	39.3	39.3	39.3	54	24.1	1	4	338	0.00	29.929 
16:45	39.5	39.5	39.5	54	24.2	1	2	338	0.00	29.932 
16:50	39.6	39.6	39.6	55	24.8	1	3	315	0.00	29.932 
16:55	39.6	39.6	39.6	56	25.2	2	6	248	0.00	29.932 
17:00	39.5	39.5	39.5	57	25.5	2	5	270	0.00	29.936 
17:05	39.3	39.3	39.3	58	25.8	2	4	315	0.00	29.936 
17:10	39.2	39.2	39.2	59	26.1	3	5	270	0.00	29.936 
17:15	39.2	39.2	39.2	59	26.1	2	6	338	0.00	29.944 
17:20	39.1	39.1	39.1	58	25.6	2	5	270	0.00	29.944 
17:25	39.2	39.2	39.2	58	25.7	2	5	270	0.00	29.944 
17:30	39.1	39.1	39.1	57	25.2	2	6	292	0.00	29.947 
17:35	38.9	38.9	38.9	58	25.4	2	5	292	0.00	29.947 
17:40	38.8	38.8	38.8	62	26.9	1	3	0	0.00	29.947 
17:45	38.3	38.3	38.3	64	27.2	1	2	0	0.00	29.954 
17:50	38.0	38.0	38.0	65	27.3	0	1	45	0.00	29.954 
17:55	38.0	38.0	38.0	65	27.3	0	1	45	0.00	29.954 
18:00	38.0	38.0	38.0	65	27.3	0	3	292	0.00	29.961 
18:05	38.2	38.2	38.2	64	27.1	0	2	292	0.00	29.961 
18:10	38.2	38.2	38.2	65	27.5	1	4	292	0.00	29.961 
18:15	37.9	37.9	37.9	67	27.9	2	4	270	0.00	29.969 
18:20	37.3	37.3	37.3	69	28.1	2	6	292	0.00	29.969 
18:25	36.5	36.5	36.5	72	28.3	1	4	338	0.00	29.969 
18:30	36.0	36.0	36.0	74	28.5	1	3	270	0.00	29.978 
18:35	35.9	35.9	35.9	74	28.4	1	4	315	0.00	29.978 
18:40	35.9	35.9	35.9	75	28.8	1	4	270	0.00	29.978 
18:45	35.6	35.6	35.6	76	28.8	1	3	338	0.00	29.986 
18:50	35.3	35.3	35.3	76	28.5	1	5	338	0.00	29.986 
18:55	35.5	35.5	35.5	75	28.4	1	3	225	0.00	29.986 
19:00	35.5	35.5	35.5	75	28.4	1	3	292	0.00	29.993 
19:05	35.5	35.5	35.5	75	28.4	1	4	248	0.00	29.993 
19:10	35.5	35.5	35.5	75	28.4	0	2	248	0.00	29.993 
19:15	35.5	35.5	35.5	75	28.4	0	3	248	0.00	30.003 
19:20	35.5	35.5	35.5	75	28.4	1	2	315	0.00	30.003 
19:25	35.5	35.5	35.5	75	28.4	1	3	315	0.00	30.003 
19:30	35.5	35.5	35.5	76	28.7	1	4	338	0.00	30.013 
19:35	35.3	35.3	35.3	76	28.5	1	3	270	0.00	30.013 
19:40	35.3	35.3	35.3	76	28.5	0	2	270	0.00	30.013 
19:45	35.3	35.3	35.3	77	28.8	0	2	0	0.00	30.018 
19:50	35.3	35.3	35.3	77	28.8	0	2	0	0.00	30.018 
19:55	35.3	35.3	35.3	77	28.8	0	2	0	0.00	30.018 
20:00	35.2	35.2	35.2	77	28.7	0	2	0	0.00	30.022 
20:05	35.2	35.2	35.2	78	29.0	0	1	0	0.00	30.022 
20:10	35.2	35.2	35.2	78	29.0	0	2	0	0.00	30.022 
20:15	35.2	35.2	35.2	78	29.0	0	2	0	0.00	30.030 
20:20	35.2	35.2	35.2	78	29.0	0	2	0	0.00	30.030 
20:25	35.2	35.2	35.2	78	29.0	0	0	---	0.00	30.030 
20:30	35.0	35.0	35.0	78	28.8	0	4	248	0.00	30.034 
20:35	35.0	35.0	35.0	79	29.2	0	1	248	0.00	30.034 
20:40	35.0	35.0	35.0	79	29.2	0	2	270	0.00	30.034 
20:45	35.0	35.0	35.0	79	29.2	0	1	270	0.00	30.035 
20:50	35.0	35.0	35.0	79	29.2	0	2	270	0.00	30.035 
20:55	34.9	34.9	34.9	79	29.1	0	2	270	0.00	30.035 
21:00	34.9	34.9	34.9	79	29.1	1	2	270	0.00	30.042 
21:05	34.7	34.7	34.7	79	28.9	0	2	0	0.00	30.042 
21:10	34.7	34.7	34.7	80	29.2	0	1	0	0.00	30.042 
21:15	34.6	34.6	34.6	80	29.1	0	2	338	0.00	30.046 
21:20	34.6	34.6	34.6	80	29.1	0	2	338	0.00	30.046 
21:25	34.4	34.4	34.4	80	28.9	0	2	338	0.00	30.046 
21:30	34.4	34.4	34.4	80	28.9	0	1	338	0.00	30.049 
21:35	34.4	34.4	34.4	80	28.9	0	1	338	0.00	30.049 
21:40	34.4	34.4	34.4	80	28.9	0	1	338	0.00	30.049 
21:45	34.4	34.4	34.4	80	28.9	0	1	338	0.00	30.053 
21:50	34.3	34.3	34.3	80	28.8	0	1	338	0.00	30.053 
21:55	34.3	34.3	34.3	80	28.8	0	2	338	0.00	30.053 
22:00	34.1	34.1	34.1	81	28.9	0	1	338	0.00	30.052 
22:05	33.8	33.8	33.8	81	28.6	0	0	---	0.00	30.052 
22:10	33.5	33.5	33.5	81	28.3	0	0	---	0.00	30.052 
22:15	33.4	33.4	33.4	81	28.2	0	2	338	0.00	30.063 
22:20	33.2	33.2	33.2	81	28.0	1	3	338	0.00	30.063 
22:25	33.1	33.1	33.1	81	27.9	0	3	338	0.00	30.063 
22:30	32.9	32.9	32.9	82	28.0	0	1	338	0.00	30.075 
22:35	32.7	32.7	32.7	82	27.8	0	1	338	0.00	30.075 
22:40	32.5	32.5	32.5	83	27.9	0	1	338	0.00	30.075 
22:45	32.4	32.4	32.4	83	27.8	0	1	338	0.00	30.081 
22:50	32.2	32.2	32.2	83	27.6	0	1	338	0.00	30.081 
22:55	32.1	32.1	32.1	84	27.8	0	1	338	0.00	30.081 
23:00	31.9	31.9	31.9	84	27.6	0	1	338	0.00	30.087 
23:05	31.8	31.8	31.8	84	27.5	0	1	338	0.00	30.087 
23:10	31.6	31.6	31.6	85	27.6	0	0	---	0.00	30.087 
23:15	31.5	31.5	31.5	85	27.5	0	0	---	0.00	30.094 
23:20	31.3	31.3	31.3	85	27.3	0	1	338	0.00	30.094 
23:25	31.2	31.2	31.2	86	27.5	0	0	---	0.00	30.094 
23:30	31.2	31.2	31.2	86	27.5	0	0	---	0.00	30.099 
23:35	31.0	31.0	31.0	86	27.3	0	1	338	0.00	30.099 
23:40	31.0	31.0	31.0	86	27.3	0	1	338	0.00	30.099 
23:45	31.0	31.0	31.0	87	27.6	0	0	---	0.00	30.105 
23:50	30.9	30.9	30.9	87	27.5	0	1	338	0.00	30.105 
23:55	30.7	30.7	30.7	87	27.3	0	0	---	0.00	30.105 

CoCoRaHS
IN-AL-39
A2 Web Hosting
Creative Commons License
GoDaddy
search engine by freefind advanced

loaded 2018-11-16 10:43:34 • last modified 2010-11-18 10:43:29
Privacy PolicyDisclaimer
• wx.awcolley.com is powered by PmWiki v.2002016 •
• all content (unless otherwise noted) © 2018 A W Colley